sensor_id;sensor_type;location;lat;lon;timestamp;P1;durP1;ratioP1;P2;durP2;ratioP2
61677;SDS011;47575;52.054;4.334;2022-08-19T00:01:19;14.80;;;8.82;;
61677;SDS011;47575;52.054;4.334;2022-08-19T00:03:47;12.23;;;8.00;;
61677;SDS011;47575;52.054;4.334;2022-08-19T00:06:14;13.23;;;8.05;;
61677;SDS011;47575;52.054;4.334;2022-08-19T00:08:43;11.57;;;8.05;;
61677;SDS011;47575;52.054;4.334;2022-08-19T00:11:11;16.45;;;8.23;;
61677;SDS011;47575;52.054;4.334;2022-08-19T00:13:38;13.40;;;8.15;;
61677;SDS011;47575;52.054;4.334;2022-08-19T00:16:05;15.25;;;7.93;;
61677;SDS011;47575;52.054;4.334;2022-08-19T00:18:33;12.15;;;7.70;;
61677;SDS011;47575;52.054;4.334;2022-08-19T00:21:01;13.10;;;8.00;;
61677;SDS011;47575;52.054;4.334;2022-08-19T00:23:28;10.68;;;7.38;;
61677;SDS011;47575;52.054;4.334;2022-08-19T00:25:57;11.35;;;8.18;;
61677;SDS011;47575;52.054;4.334;2022-08-19T00:28:24;15.63;;;7.53;;
61677;SDS011;47575;52.054;4.334;2022-08-19T00:30:51;12.27;;;7.45;;
61677;SDS011;47575;52.054;4.334;2022-08-19T00:33:19;10.18;;;7.05;;
61677;SDS011;47575;52.054;4.334;2022-08-19T00:35:46;12.65;;;8.10;;
61677;SDS011;47575;52.054;4.334;2022-08-19T00:38:14;13.07;;;8.23;;
61677;SDS011;47575;52.054;4.334;2022-08-19T00:40:42;13.20;;;7.88;;
61677;SDS011;47575;52.054;4.334;2022-08-19T00:43:14;13.30;;;7.60;;
61677;SDS011;47575;52.054;4.334;2022-08-19T00:45:45;10.50;;;7.65;;
61677;SDS011;47575;52.054;4.334;2022-08-19T00:48:13;13.23;;;8.32;;
61677;SDS011;47575;52.054;4.334;2022-08-19T00:50:42;14.57;;;9.00;;
61677;SDS011;47575;52.054;4.334;2022-08-19T00:53:11;14.73;;;9.02;;
61677;SDS011;47575;52.054;4.334;2022-08-19T00:55:43;12.30;;;8.82;;
61677;SDS011;47575;52.054;4.334;2022-08-19T00:58:15;15.07;;;8.88;;
61677;SDS011;47575;52.054;4.334;2022-08-19T01:00:46;14.30;;;8.95;;
61677;SDS011;47575;52.054;4.334;2022-08-19T01:03:18;14.65;;;9.10;;
61677;SDS011;47575;52.054;4.334;2022-08-19T01:05:47;13.38;;;8.85;;
61677;SDS011;47575;52.054;4.334;2022-08-19T01:08:17;14.55;;;9.57;;
61677;SDS011;47575;52.054;4.334;2022-08-19T01:10:47;13.68;;;9.43;;
61677;SDS011;47575;52.054;4.334;2022-08-19T01:13:19;16.90;;;10.10;;
61677;SDS011;47575;52.054;4.334;2022-08-19T01:15:50;19.07;;;10.93;;
61677;SDS011;47575;52.054;4.334;2022-08-19T01:18:21;15.23;;;11.27;;
61677;SDS011;47575;52.054;4.334;2022-08-19T01:20:51;19.00;;;13.35;;
61677;SDS011;47575;52.054;4.334;2022-08-19T01:23:22;19.45;;;14.95;;
61677;SDS011;47575;52.054;4.334;2022-08-19T01:26:09;21.27;;;17.45;;
61677;SDS011;47575;52.054;4.334;2022-08-19T01:28:39;22.40;;;17.85;;
61677;SDS011;47575;52.054;4.334;2022-08-19T01:31:08;19.77;;;16.70;;
61677;SDS011;47575;52.054;4.334;2022-08-19T01:33:38;18.30;;;16.10;;
61677;SDS011;47575;52.054;4.334;2022-08-19T01:36:07;21.35;;;16.30;;
61677;SDS011;47575;52.054;4.334;2022-08-19T01:38:39;26.70;;;19.45;;
61677;SDS011;47575;52.054;4.334;2022-08-19T01:41:08;28.00;;;21.60;;
61677;SDS011;47575;52.054;4.334;2022-08-19T01:43:37;34.10;;;23.15;;
61677;SDS011;47575;52.054;4.334;2022-08-19T01:46:04;30.98;;;22.83;;
61677;SDS011;47575;52.054;4.334;2022-08-19T01:48:33;32.22;;;25.23;;
61677;SDS011;47575;52.054;4.334;2022-08-19T01:51:01;34.88;;;27.58;;
61677;SDS011;47575;52.054;4.334;2022-08-19T01:53:29;36.20;;;28.63;;
61677;SDS011;47575;52.054;4.334;2022-08-19T01:55:58;37.38;;;30.17;;
61677;SDS011;47575;52.054;4.334;2022-08-19T01:58:26;44.42;;;32.00;;
61677;SDS011;47575;52.054;4.334;2022-08-19T02:00:59;41.15;;;32.17;;
61677;SDS011;47575;52.054;4.334;2022-08-19T02:03:26;48.22;;;36.20;;
61677;SDS011;47575;52.054;4.334;2022-08-19T02:05:55;50.50;;;38.33;;
61677;SDS011;47575;52.054;4.334;2022-08-19T02:08:25;54.88;;;39.88;;
61677;SDS011;47575;52.054;4.334;2022-08-19T02:10:52;60.03;;;40.83;;
61677;SDS011;47575;52.054;4.334;2022-08-19T02:13:22;53.10;;;39.75;;
61677;SDS011;47575;52.054;4.334;2022-08-19T02:15:50;55.83;;;39.88;;
61677;SDS011;47575;52.054;4.334;2022-08-19T02:18:17;55.67;;;39.85;;
61677;SDS011;47575;52.054;4.334;2022-08-19T02:20:44;53.13;;;38.72;;
61677;SDS011;47575;52.054;4.334;2022-08-19T02:23:13;53.42;;;38.00;;
61677;SDS011;47575;52.054;4.334;2022-08-19T02:25:42;53.25;;;38.17;;
61677;SDS011;47575;52.054;4.334;2022-08-19T02:28:11;59.88;;;39.60;;
61677;SDS011;47575;52.054;4.334;2022-08-19T02:30:40;56.00;;;39.50;;
61677;SDS011;47575;52.054;4.334;2022-08-19T02:33:08;52.75;;;36.60;;
61677;SDS011;47575;52.054;4.334;2022-08-19T02:35:36;55.28;;;36.72;;
61677;SDS011;47575;52.054;4.334;2022-08-19T02:38:03;53.50;;;37.67;;
61677;SDS011;47575;52.054;4.334;2022-08-19T02:40:48;57.00;;;38.45;;
61677;SDS011;47575;52.054;4.334;2022-08-19T02:43:17;57.40;;;37.95;;
61677;SDS011;47575;52.054;4.334;2022-08-19T02:45:48;50.35;;;36.63;;
61677;SDS011;47575;52.054;4.334;2022-08-19T02:48:15;57.10;;;37.75;;
61677;SDS011;47575;52.054;4.334;2022-08-19T02:50:44;55.13;;;37.55;;
61677;SDS011;47575;52.054;4.334;2022-08-19T02:53:12;54.42;;;36.67;;
61677;SDS011;47575;52.054;4.334;2022-08-19T02:55:43;53.88;;;35.47;;
61677;SDS011;47575;52.054;4.334;2022-08-19T02:58:11;54.20;;;35.70;;
61677;SDS011;47575;52.054;4.334;2022-08-19T03:00:43;53.78;;;37.45;;
61677;SDS011;47575;52.054;4.334;2022-08-19T03:03:13;55.55;;;37.03;;
61677;SDS011;47575;52.054;4.334;2022-08-19T03:05:41;57.28;;;37.15;;
61677;SDS011;47575;52.054;4.334;2022-08-19T03:08:09;55.20;;;36.58;;
61677;SDS011;47575;52.054;4.334;2022-08-19T03:10:42;51.58;;;36.55;;
61677;SDS011;47575;52.054;4.334;2022-08-19T03:13:11;53.42;;;36.90;;
61677;SDS011;47575;52.054;4.334;2022-08-19T03:15:41;54.42;;;37.15;;
61677;SDS011;47575;52.054;4.334;2022-08-19T03:18:09;58.47;;;38.05;;
61677;SDS011;47575;52.054;4.334;2022-08-19T03:20:42;54.40;;;36.78;;
61677;SDS011;47575;52.054;4.334;2022-08-19T03:23:11;61.47;;;38.88;;
61677;SDS011;47575;52.054;4.334;2022-08-19T03:25:39;64.35;;;39.00;;
61677;SDS011;47575;52.054;4.334;2022-08-19T03:28:09;56.03;;;38.63;;
61677;SDS011;47575;52.054;4.334;2022-08-19T03:30:37;59.85;;;38.30;;
61677;SDS011;47575;52.054;4.334;2022-08-19T03:33:05;55.85;;;37.08;;
61677;SDS011;47575;52.054;4.334;2022-08-19T03:35:32;56.88;;;38.53;;
61677;SDS011;47575;52.054;4.334;2022-08-19T03:38:03;62.30;;;41.00;;
61677;SDS011;47575;52.054;4.334;2022-08-19T03:40:32;60.47;;;40.65;;
61677;SDS011;47575;52.054;4.334;2022-08-19T03:43:00;64.78;;;41.95;;
61677;SDS011;47575;52.054;4.334;2022-08-19T03:45:28;66.45;;;41.22;;
61677;SDS011;47575;52.054;4.334;2022-08-19T03:47:55;68.78;;;42.42;;
61677;SDS011;47575;52.054;4.334;2022-08-19T03:50:23;65.43;;;43.00;;
61677;SDS011;47575;52.054;4.334;2022-08-19T03:52:51;75.07;;;45.97;;
61677;SDS011;47575;52.054;4.334;2022-08-19T03:55:20;84.88;;;48.95;;
61677;SDS011;47575;52.054;4.334;2022-08-19T03:57:47;82.47;;;46.70;;
61677;SDS011;47575;52.054;4.334;2022-08-19T04:00:15;95.32;;;49.45;;
61677;SDS011;47575;52.054;4.334;2022-08-19T04:02:43;88.45;;;49.47;;
61677;SDS011;47575;52.054;4.334;2022-08-19T04:05:10;97.13;;;52.08;;
61677;SDS011;47575;52.054;4.334;2022-08-19T04:07:38;99.53;;;52.28;;
61677;SDS011;47575;52.054;4.334;2022-08-19T04:10:05;93.32;;;49.95;;
61677;SDS011;47575;52.054;4.334;2022-08-19T04:12:34;99.97;;;52.53;;
61677;SDS011;47575;52.054;4.334;2022-08-19T04:15:02;98.30;;;53.50;;
61677;SDS011;47575;52.054;4.334;2022-08-19T04:17:31;99.40;;;52.13;;
61677;SDS011;47575;52.054;4.334;2022-08-19T04:19:59;92.75;;;51.97;;
61677;SDS011;47575;52.054;4.334;2022-08-19T04:22:26;97.82;;;52.15;;
61677;SDS011;47575;52.054;4.334;2022-08-19T04:24:53;92.65;;;52.03;;
61677;SDS011;47575;52.054;4.334;2022-08-19T04:27:21;91.88;;;50.40;;
61677;SDS011;47575;52.054;4.334;2022-08-19T04:29:49;80.10;;;48.83;;
61677;SDS011;47575;52.054;4.334;2022-08-19T04:32:18;82.93;;;48.97;;
61677;SDS011;47575;52.054;4.334;2022-08-19T04:34:45;85.18;;;48.42;;
61677;SDS011;47575;52.054;4.334;2022-08-19T04:37:12;80.28;;;47.70;;
61677;SDS011;47575;52.054;4.334;2022-08-19T04:39:40;84.00;;;49.22;;
61677;SDS011;47575;52.054;4.334;2022-08-19T04:42:25;84.95;;;47.80;;
61677;SDS011;47575;52.054;4.334;2022-08-19T04:45:10;87.10;;;48.22;;
61677;SDS011;47575;52.054;4.334;2022-08-19T04:47:38;80.32;;;46.72;;
61677;SDS011;47575;52.054;4.334;2022-08-19T04:50:07;81.63;;;47.60;;
61677;SDS011;47575;52.054;4.334;2022-08-19T04:52:37;76.68;;;44.78;;
61677;SDS011;47575;52.054;4.334;2022-08-19T04:55:08;79.43;;;46.25;;
61677;SDS011;47575;52.054;4.334;2022-08-19T04:57:36;71.32;;;45.00;;
61677;SDS011;47575;52.054;4.334;2022-08-19T05:00:06;70.57;;;43.67;;
61677;SDS011;47575;52.054;4.334;2022-08-19T05:02:37;74.05;;;43.85;;
61677;SDS011;47575;52.054;4.334;2022-08-19T05:05:05;74.95;;;44.42;;
61677;SDS011;47575;52.054;4.334;2022-08-19T05:07:33;76.18;;;42.90;;
61677;SDS011;47575;52.054;4.334;2022-08-19T05:10:00;70.38;;;43.13;;
61677;SDS011;47575;52.054;4.334;2022-08-19T05:12:28;76.85;;;42.95;;
61677;SDS011;47575;52.054;4.334;2022-08-19T05:14:55;65.60;;;42.35;;
61677;SDS011;47575;52.054;4.334;2022-08-19T05:17:25;70.32;;;43.22;;
61677;SDS011;47575;52.054;4.334;2022-08-19T05:19:53;71.00;;;42.13;;
61677;SDS011;47575;52.054;4.334;2022-08-19T05:22:39;67.53;;;41.25;;
61677;SDS011;47575;52.054;4.334;2022-08-19T05:25:08;69.85;;;41.08;;
61677;SDS011;47575;52.054;4.334;2022-08-19T05:27:38;64.43;;;41.15;;
61677;SDS011;47575;52.054;4.334;2022-08-19T05:30:06;66.32;;;41.35;;
61677;SDS011;47575;52.054;4.334;2022-08-19T05:32:35;66.78;;;39.47;;
61677;SDS011;47575;52.054;4.334;2022-08-19T05:35:03;69.72;;;41.20;;
61677;SDS011;47575;52.054;4.334;2022-08-19T05:37:31;63.83;;;39.33;;
61677;SDS011;47575;52.054;4.334;2022-08-19T05:39:59;60.25;;;39.38;;
61677;SDS011;47575;52.054;4.334;2022-08-19T05:42:26;72.25;;;39.85;;
61677;SDS011;47575;52.054;4.334;2022-08-19T05:44:54;708.78;;;136.48;;
61677;SDS011;47575;52.054;4.334;2022-08-19T05:47:22;62.03;;;38.55;;
61677;SDS011;47575;52.054;4.334;2022-08-19T05:49:50;60.72;;;38.90;;
61677;SDS011;47575;52.054;4.334;2022-08-19T05:52:18;62.85;;;38.28;;
61677;SDS011;47575;52.054;4.334;2022-08-19T05:54:46;52.67;;;36.08;;
61677;SDS011;47575;52.054;4.334;2022-08-19T05:57:14;58.30;;;36.83;;
61677;SDS011;47575;52.054;4.334;2022-08-19T05:59:41;56.78;;;36.63;;
61677;SDS011;47575;52.054;4.334;2022-08-19T06:02:09;51.50;;;34.63;;
61677;SDS011;47575;52.054;4.334;2022-08-19T06:04:36;57.78;;;35.13;;
61677;SDS011;47575;52.054;4.334;2022-08-19T06:07:06;54.67;;;33.30;;
61677;SDS011;47575;52.054;4.334;2022-08-19T06:09:33;47.63;;;32.65;;
61677;SDS011;47575;52.054;4.334;2022-08-19T06:12:01;52.78;;;32.85;;
61677;SDS011;47575;52.054;4.334;2022-08-19T06:14:31;210.25;;;43.30;;
61677;SDS011;47575;52.054;4.334;2022-08-19T06:16:59;53.72;;;31.65;;
61677;SDS011;47575;52.054;4.334;2022-08-19T06:19:28;45.60;;;31.17;;
61677;SDS011;47575;52.054;4.334;2022-08-19T06:21:57;47.42;;;31.05;;
61677;SDS011;47575;52.054;4.334;2022-08-19T06:24:27;48.05;;;29.63;;
61677;SDS011;47575;52.054;4.334;2022-08-19T06:26:56;49.42;;;30.13;;
61677;SDS011;47575;52.054;4.334;2022-08-19T06:29:25;45.10;;;28.75;;
61677;SDS011;47575;52.054;4.334;2022-08-19T06:31:54;39.42;;;28.17;;
61677;SDS011;47575;52.054;4.334;2022-08-19T06:34:24;44.25;;;26.90;;
61677;SDS011;47575;52.054;4.334;2022-08-19T06:36:54;40.50;;;25.70;;
61677;SDS011;47575;52.054;4.334;2022-08-19T06:39:28;37.65;;;24.42;;
61677;SDS011;47575;52.054;4.334;2022-08-19T06:41:58;36.85;;;25.15;;
61677;SDS011;47575;52.054;4.334;2022-08-19T06:44:29;39.43;;;25.10;;
61677;SDS011;47575;52.054;4.334;2022-08-19T06:47:01;34.97;;;23.60;;
61677;SDS011;47575;52.054;4.334;2022-08-19T06:49:30;39.47;;;24.15;;
61677;SDS011;47575;52.054;4.334;2022-08-19T06:51:57;40.88;;;24.42;;
61677;SDS011;47575;52.054;4.334;2022-08-19T06:54:27;35.90;;;22.92;;
61677;SDS011;47575;52.054;4.334;2022-08-19T06:56:59;33.00;;;22.15;;
61677;SDS011;47575;52.054;4.334;2022-08-19T06:59:28;34.67;;;22.90;;
61677;SDS011;47575;52.054;4.334;2022-08-19T07:02:03;37.15;;;21.90;;
61677;SDS011;47575;52.054;4.334;2022-08-19T07:04:32;34.83;;;21.35;;
61677;SDS011;47575;52.054;4.334;2022-08-19T07:07:03;33.38;;;22.33;;
61677;SDS011;47575;52.054;4.334;2022-08-19T07:09:38;34.85;;;21.88;;
61677;SDS011;47575;52.054;4.334;2022-08-19T07:12:09;33.95;;;21.55;;
61677;SDS011;47575;52.054;4.334;2022-08-19T07:14:39;32.58;;;20.90;;
61677;SDS011;47575;52.054;4.334;2022-08-19T07:17:07;30.08;;;19.70;;
61677;SDS011;47575;52.054;4.334;2022-08-19T07:19:37;30.75;;;19.63;;
61677;SDS011;47575;52.054;4.334;2022-08-19T07:22:07;28.58;;;18.30;;
61677;SDS011;47575;52.054;4.334;2022-08-19T07:24:37;29.42;;;17.27;;
61677;SDS011;47575;52.054;4.334;2022-08-19T07:27:05;27.92;;;15.85;;
61677;SDS011;47575;52.054;4.334;2022-08-19T07:29:36;26.50;;;15.55;;
61677;SDS011;47575;52.054;4.334;2022-08-19T07:32:06;24.65;;;13.85;;
61677;SDS011;47575;52.054;4.334;2022-08-19T07:34:34;21.42;;;14.23;;
61677;SDS011;47575;52.054;4.334;2022-08-19T07:37:03;22.30;;;13.27;;
61677;SDS011;47575;52.054;4.334;2022-08-19T07:39:32;19.77;;;11.18;;
61677;SDS011;47575;52.054;4.334;2022-08-19T07:42:04;23.02;;;11.60;;
61677;SDS011;47575;52.054;4.334;2022-08-19T07:44:34;21.60;;;10.77;;
61677;SDS011;47575;52.054;4.334;2022-08-19T07:47:02;18.00;;;8.60;;
61677;SDS011;47575;52.054;4.334;2022-08-19T07:49:31;18.67;;;7.90;;
61677;SDS011;47575;52.054;4.334;2022-08-19T07:52:00;15.05;;;6.32;;
61677;SDS011;47575;52.054;4.334;2022-08-19T07:54:33;18.45;;;6.75;;
61677;SDS011;47575;52.054;4.334;2022-08-19T07:57:07;14.25;;;6.57;;
61677;SDS011;47575;52.054;4.334;2022-08-19T07:59:34;15.70;;;6.60;;
61677;SDS011;47575;52.054;4.334;2022-08-19T08:02:03;11.80;;;6.32;;
61677;SDS011;47575;52.054;4.334;2022-08-19T08:04:31;14.30;;;5.90;;
61677;SDS011;47575;52.054;4.334;2022-08-19T08:07:16;15.82;;;6.68;;
61677;SDS011;47575;52.054;4.334;2022-08-19T08:10:03;14.25;;;6.22;;
61677;SDS011;47575;52.054;4.334;2022-08-19T08:12:38;13.57;;;6.15;;
61677;SDS011;47575;52.054;4.334;2022-08-19T08:15:09;13.75;;;6.32;;
61677;SDS011;47575;52.054;4.334;2022-08-19T08:17:42;14.00;;;5.57;;
61677;SDS011;47575;52.054;4.334;2022-08-19T08:20:10;11.63;;;5.70;;
61677;SDS011;47575;52.054;4.334;2022-08-19T08:22:44;11.38;;;5.20;;
61677;SDS011;47575;52.054;4.334;2022-08-19T08:25:29;10.85;;;5.20;;
61677;SDS011;47575;52.054;4.334;2022-08-19T08:27:59;11.57;;;5.10;;
61677;SDS011;47575;52.054;4.334;2022-08-19T08:30:27;11.15;;;4.95;;
61677;SDS011;47575;52.054;4.334;2022-08-19T08:32:56;11.27;;;4.90;;
61677;SDS011;47575;52.054;4.334;2022-08-19T08:35:23;8.85;;;4.55;;
61677;SDS011;47575;52.054;4.334;2022-08-19T08:37:52;10.40;;;4.82;;
61677;SDS011;47575;52.054;4.334;2022-08-19T08:40:22;11.07;;;5.13;;
61677;SDS011;47575;52.054;4.334;2022-08-19T08:42:55;11.65;;;5.28;;
61677;SDS011;47575;52.054;4.334;2022-08-19T08:45:29;10.93;;;4.75;;
61677;SDS011;47575;52.054;4.334;2022-08-19T08:47:57;9.02;;;4.25;;
61677;SDS011;47575;52.054;4.334;2022-08-19T08:50:31;9.13;;;4.82;;
61677;SDS011;47575;52.054;4.334;2022-08-19T08:53:03;8.80;;;4.00;;
61677;SDS011;47575;52.054;4.334;2022-08-19T08:55:34;12.48;;;4.15;;
61677;SDS011;47575;52.054;4.334;2022-08-19T08:58:04;10.75;;;3.75;;
61677;SDS011;47575;52.054;4.334;2022-08-19T09:00:37;8.57;;;3.90;;
61677;SDS011;47575;52.054;4.334;2022-08-19T09:03:18;8.45;;;4.03;;
61677;SDS011;47575;52.054;4.334;2022-08-19T09:05:51;10.02;;;3.90;;
61677;SDS011;47575;52.054;4.334;2022-08-19T09:08:33;8.40;;;3.53;;
61677;SDS011;47575;52.054;4.334;2022-08-19T09:13:44;9.43;;;3.50;;
61677;SDS011;47575;52.054;4.334;2022-08-19T09:16:25;8.63;;;3.50;;
61677;SDS011;47575;52.054;4.334;2022-08-19T09:18:54;8.82;;;3.63;;
61677;SDS011;47575;52.054;4.334;2022-08-19T09:21:25;9.82;;;3.10;;
61677;SDS011;47575;52.054;4.334;2022-08-19T09:23:53;7.43;;;3.10;;
61677;SDS011;47575;52.054;4.334;2022-08-19T09:26:21;6.43;;;2.85;;
61677;SDS011;47575;52.054;4.334;2022-08-19T09:28:51;8.38;;;3.28;;
61677;SDS011;47575;52.054;4.334;2022-08-19T09:31:21;7.97;;;3.03;;
61677;SDS011;47575;52.054;4.334;2022-08-19T09:33:55;10.50;;;3.50;;
61677;SDS011;47575;52.054;4.334;2022-08-19T09:36:24;9.85;;;3.35;;
61677;SDS011;47575;52.054;4.334;2022-08-19T09:38:54;7.53;;;3.13;;
61677;SDS011;47575;52.054;4.334;2022-08-19T09:41:24;9.10;;;2.97;;
61677;SDS011;47575;52.054;4.334;2022-08-19T09:43:53;8.30;;;2.88;;
61677;SDS011;47575;52.054;4.334;2022-08-19T09:46:22;6.55;;;3.05;;
61677;SDS011;47575;52.054;4.334;2022-08-19T09:48:53;6.15;;;2.70;;
61677;SDS011;47575;52.054;4.334;2022-08-19T09:51:24;7.68;;;2.60;;
61677;SDS011;47575;52.054;4.334;2022-08-19T09:53:54;7.30;;;2.97;;
61677;SDS011;47575;52.054;4.334;2022-08-19T09:56:25;9.98;;;2.80;;
61677;SDS011;47575;52.054;4.334;2022-08-19T09:58:52;7.43;;;2.70;;
61677;SDS011;47575;52.054;4.334;2022-08-19T10:01:20;6.43;;;2.60;;
61677;SDS011;47575;52.054;4.334;2022-08-19T10:03:50;7.60;;;2.90;;
61677;SDS011;47575;52.054;4.334;2022-08-19T10:06:21;6.95;;;2.30;;
61677;SDS011;47575;52.054;4.334;2022-08-19T10:08:50;8.18;;;2.15;;
61677;SDS011;47575;52.054;4.334;2022-08-19T10:11:18;5.93;;;2.15;;
61677;SDS011;47575;52.054;4.334;2022-08-19T10:13:46;6.13;;;2.20;;
61677;SDS011;47575;52.054;4.334;2022-08-19T10:16:16;7.03;;;1.90;;
61677;SDS011;47575;52.054;4.334;2022-08-19T10:18:45;5.50;;;1.90;;
61677;SDS011;47575;52.054;4.334;2022-08-19T10:21:15;6.43;;;2.05;;
61677;SDS011;47575;52.054;4.334;2022-08-19T10:23:47;8.40;;;2.27;;
61677;SDS011;47575;52.054;4.334;2022-08-19T10:26:17;6.07;;;2.00;;
61677;SDS011;47575;52.054;4.334;2022-08-19T10:28:46;6.40;;;1.92;;
61677;SDS011;47575;52.054;4.334;2022-08-19T10:31:15;5.45;;;2.05;;
61677;SDS011;47575;52.054;4.334;2022-08-19T10:33:45;7.82;;;2.08;;
61677;SDS011;47575;52.054;4.334;2022-08-19T10:36:15;7.00;;;1.70;;
61677;SDS011;47575;52.054;4.334;2022-08-19T10:38:45;7.43;;;1.80;;
61677;SDS011;47575;52.054;4.334;2022-08-19T10:41:15;4.43;;;1.70;;
61677;SDS011;47575;52.054;4.334;2022-08-19T10:43:44;6.03;;;1.80;;
61677;SDS011;47575;52.054;4.334;2022-08-19T10:46:12;6.40;;;2.08;;
61677;SDS011;47575;52.054;4.334;2022-08-19T10:48:41;9.15;;;2.08;;
61677;SDS011;47575;52.054;4.334;2022-08-19T10:51:08;6.22;;;1.80;;
61677;SDS011;47575;52.054;4.334;2022-08-19T10:53:56;7.97;;;2.13;;
61677;SDS011;47575;52.054;4.334;2022-08-19T10:56:23;7.93;;;2.10;;
61677;SDS011;47575;52.054;4.334;2022-08-19T10:59:09;5.28;;;2.20;;
61677;SDS011;47575;52.054;4.334;2022-08-19T11:01:40;6.60;;;2.00;;
61677;SDS011;47575;52.054;4.334;2022-08-19T11:04:08;5.35;;;1.70;;
61677;SDS011;47575;52.054;4.334;2022-08-19T11:06:37;5.38;;;1.90;;
61677;SDS011;47575;52.054;4.334;2022-08-19T11:09:09;8.43;;;2.40;;
61677;SDS011;47575;52.054;4.334;2022-08-19T11:11:37;7.53;;;2.00;;
61677;SDS011;47575;52.054;4.334;2022-08-19T11:14:07;5.25;;;1.80;;
61677;SDS011;47575;52.054;4.334;2022-08-19T11:16:35;6.78;;;2.00;;
61677;SDS011;47575;52.054;4.334;2022-08-19T11:19:04;5.13;;;2.05;;
61677;SDS011;47575;52.054;4.334;2022-08-19T11:21:34;6.68;;;2.28;;
61677;SDS011;47575;52.054;4.334;2022-08-19T11:24:04;6.18;;;2.08;;
61677;SDS011;47575;52.054;4.334;2022-08-19T11:26:36;8.05;;;2.20;;
61677;SDS011;47575;52.054;4.334;2022-08-19T11:29:04;5.40;;;1.90;;
61677;SDS011;47575;52.054;4.334;2022-08-19T11:31:37;5.75;;;2.00;;
61677;SDS011;47575;52.054;4.334;2022-08-19T11:34:05;5.80;;;2.10;;
61677;SDS011;47575;52.054;4.334;2022-08-19T11:36:36;6.28;;;2.38;;
61677;SDS011;47575;52.054;4.334;2022-08-19T11:39:05;5.00;;;2.10;;
61677;SDS011;47575;52.054;4.334;2022-08-19T11:41:33;6.07;;;2.15;;
61677;SDS011;47575;52.054;4.334;2022-08-19T11:44:03;5.88;;;2.10;;
61677;SDS011;47575;52.054;4.334;2022-08-19T11:46:32;6.68;;;2.30;;
61677;SDS011;47575;52.054;4.334;2022-08-19T11:48:59;5.13;;;2.17;;
61677;SDS011;47575;52.054;4.334;2022-08-19T11:51:29;6.32;;;1.98;;
61677;SDS011;47575;52.054;4.334;2022-08-19T11:53:57;7.00;;;2.03;;
61677;SDS011;47575;52.054;4.334;2022-08-19T11:56:26;5.75;;;2.05;;
61677;SDS011;47575;52.054;4.334;2022-08-19T11:58:54;7.55;;;2.47;;
61677;SDS011;47575;52.054;4.334;2022-08-19T12:01:24;7.20;;;2.00;;
61677;SDS011;47575;52.054;4.334;2022-08-19T12:03:53;8.02;;;1.95;;
61677;SDS011;47575;52.054;4.334;2022-08-19T12:06:23;5.13;;;1.80;;
61677;SDS011;47575;52.054;4.334;2022-08-19T12:08:54;5.68;;;2.28;;
61677;SDS011;47575;52.054;4.334;2022-08-19T12:11:23;5.30;;;2.10;;
61677;SDS011;47575;52.054;4.334;2022-08-19T12:13:51;7.65;;;2.20;;
61677;SDS011;47575;52.054;4.334;2022-08-19T12:16:20;4.97;;;2.08;;
61677;SDS011;47575;52.054;4.334;2022-08-19T12:18:52;5.90;;;1.95;;
61677;SDS011;47575;52.054;4.334;2022-08-19T12:21:20;6.15;;;1.83;;
61677;SDS011;47575;52.054;4.334;2022-08-19T12:23:50;5.25;;;1.67;;
61677;SDS011;47575;52.054;4.334;2022-08-19T12:26:18;4.50;;;2.00;;
61677;SDS011;47575;52.054;4.334;2022-08-19T12:28:45;7.38;;;2.10;;
61677;SDS011;47575;52.054;4.334;2022-08-19T12:31:23;6.03;;;2.03;;
61677;SDS011;47575;52.054;4.334;2022-08-19T12:33:51;7.97;;;2.53;;
61677;SDS011;47575;52.054;4.334;2022-08-19T12:36:19;5.38;;;2.13;;
61677;SDS011;47575;52.054;4.334;2022-08-19T12:38:47;8.45;;;2.60;;
61677;SDS011;47575;52.054;4.334;2022-08-19T12:41:15;5.88;;;2.10;;
61677;SDS011;47575;52.054;4.334;2022-08-19T12:43:44;5.10;;;2.00;;
61677;SDS011;47575;52.054;4.334;2022-08-19T12:46:11;5.38;;;2.25;;
61677;SDS011;47575;52.054;4.334;2022-08-19T12:48:41;6.07;;;1.92;;
61677;SDS011;47575;52.054;4.334;2022-08-19T12:51:12;5.13;;;2.25;;
61677;SDS011;47575;52.054;4.334;2022-08-19T12:53:40;7.20;;;2.17;;
61677;SDS011;47575;52.054;4.334;2022-08-19T12:56:09;6.55;;;2.10;;
61677;SDS011;47575;52.054;4.334;2022-08-19T12:58:38;5.75;;;2.10;;
61677;SDS011;47575;52.054;4.334;2022-08-19T13:01:08;4.82;;;1.98;;
61677;SDS011;47575;52.054;4.334;2022-08-19T13:03:37;5.43;;;2.35;;
61677;SDS011;47575;52.054;4.334;2022-08-19T13:06:07;6.70;;;2.35;;
61677;SDS011;47575;52.054;4.334;2022-08-19T13:08:35;5.13;;;2.20;;
61677;SDS011;47575;52.054;4.334;2022-08-19T13:11:08;6.35;;;2.00;;
61677;SDS011;47575;52.054;4.334;2022-08-19T13:13:38;5.00;;;2.20;;
61677;SDS011;47575;52.054;4.334;2022-08-19T13:16:07;6.35;;;2.50;;
61677;SDS011;47575;52.054;4.334;2022-08-19T13:18:36;4.88;;;2.20;;
61677;SDS011;47575;52.054;4.334;2022-08-19T13:21:07;4.95;;;2.45;;
61677;SDS011;47575;52.054;4.334;2022-08-19T13:23:37;7.18;;;2.78;;
61677;SDS011;47575;52.054;4.334;2022-08-19T13:26:05;5.38;;;2.10;;
61677;SDS011;47575;52.054;4.334;2022-08-19T13:28:34;6.38;;;2.28;;
61677;SDS011;47575;52.054;4.334;2022-08-19T13:31:16;4.63;;;1.70;;
61677;SDS011;47575;52.054;4.334;2022-08-19T13:34:01;4.68;;;1.80;;
61677;SDS011;47575;52.054;4.334;2022-08-19T13:36:30;4.53;;;1.88;;
61677;SDS011;47575;52.054;4.334;2022-08-19T13:38:57;3.88;;;1.80;;
61677;SDS011;47575;52.054;4.334;2022-08-19T13:41:25;4.28;;;1.80;;
61677;SDS011;47575;52.054;4.334;2022-08-19T13:43:52;5.10;;;1.83;;
61677;SDS011;47575;52.054;4.334;2022-08-19T13:46:20;5.85;;;2.05;;
61677;SDS011;47575;52.054;4.334;2022-08-19T13:48:48;6.57;;;2.15;;
61677;SDS011;47575;52.054;4.334;2022-08-19T13:51:15;5.72;;;2.30;;
61677;SDS011;47575;52.054;4.334;2022-08-19T13:53:45;5.00;;;2.45;;
61677;SDS011;47575;52.054;4.334;2022-08-19T13:56:13;6.88;;;2.63;;
61677;SDS011;47575;52.054;4.334;2022-08-19T13:58:42;5.28;;;2.40;;
61677;SDS011;47575;52.054;4.334;2022-08-19T14:01:10;6.20;;;2.30;;
61677;SDS011;47575;52.054;4.334;2022-08-19T14:03:37;6.20;;;2.63;;
61677;SDS011;47575;52.054;4.334;2022-08-19T14:06:06;6.95;;;2.30;;
61677;SDS011;47575;52.054;4.334;2022-08-19T14:08:33;5.07;;;2.25;;
61677;SDS011;47575;52.054;4.334;2022-08-19T14:11:06;3.85;;;1.88;;
61677;SDS011;47575;52.054;4.334;2022-08-19T14:13:33;4.75;;;2.00;;
61677;SDS011;47575;52.054;4.334;2022-08-19T14:16:01;4.57;;;2.05;;
61677;SDS011;47575;52.054;4.334;2022-08-19T14:18:33;5.57;;;2.13;;
61677;SDS011;47575;52.054;4.334;2022-08-19T14:21:01;6.70;;;2.33;;
61677;SDS011;47575;52.054;4.334;2022-08-19T14:23:30;8.75;;;2.55;;
61677;SDS011;47575;52.054;4.334;2022-08-19T14:26:03;6.07;;;2.40;;
61677;SDS011;47575;52.054;4.334;2022-08-19T14:28:33;6.95;;;2.42;;
61677;SDS011;47575;52.054;4.334;2022-08-19T14:31:01;5.22;;;2.38;;
61677;SDS011;47575;52.054;4.334;2022-08-19T14:33:28;7.57;;;2.42;;
61677;SDS011;47575;52.054;4.334;2022-08-19T14:35:56;5.55;;;2.30;;
61677;SDS011;47575;52.054;4.334;2022-08-19T14:38:23;5.63;;;2.63;;
61677;SDS011;47575;52.054;4.334;2022-08-19T14:40:51;7.25;;;3.03;;
61677;SDS011;47575;52.054;4.334;2022-08-19T14:43:20;5.78;;;3.08;;
61677;SDS011;47575;52.054;4.334;2022-08-19T14:45:48;7.70;;;3.42;;
61677;SDS011;47575;52.054;4.334;2022-08-19T14:48:15;8.40;;;2.60;;
61677;SDS011;47575;52.054;4.334;2022-08-19T14:50:43;7.22;;;3.20;;